San Fermin Berria — EBVW — position and weather

sailwx.info

Track history (hours):
 
Tides and Currents Weather Stations Pressure Air Temp Water Temp Dewpoint Dewpoint Depression Visibility Wind Speed Wind Dir Waves Ship Positions

San Fermin Berria

Last reported at 2014-Sep-30 11:33 UTC. Time now 2014-Sep-30 11:57 UTC.
Position N 43°56' W 001°43'.

Length 30 m.

Type: Fishing. MMSI: 224114650.

Date/timePositionNaut miles runAvg speedWind from/ knotsBaromVisibWave heightAir tempDewpointWater temp
2014-Sep-30 11:33N 43°56' W 001°43'19 5.5
2014-Sep-30 08:04N 44°15' W 001°38'0 0.0
2014-Sep-30 07:30N 44°15' W 001°38'2 1.7
2014-Sep-30 06:33N 44°17' W 001°37'6 5.8
2014-Sep-30 05:29N 44°23' W 001°35'5 5.0
2014-Sep-30 04:33N 44°18' W 001°33'3 3.2
2014-Sep-30 03:33N 44°21' W 001°33'1 0.7
2014-Sep-30 02:32N 44°21' W 001°32'5 4.4
2014-Sep-30 01:27N 44°25' W 001°32'45 4.9
2014-Sep-29 16:10N 43°40' W 001°40'6 9.5
2014-Sep-29 15:33N 43°35' W 001°42'9 9.1
2014-Sep-29 14:33N 43°26' W 001°46'  
2014-Sep-26 15:33N 43°23' W 001°48'0 0.0
2014-Sep-26 14:33N 43°23' W 001°48'0 0.0
2014-Sep-26 11:33N 43°23' W 001°48'0 0.0
2014-Sep-26 10:33N 43°23' W 001°48'0 0.0
2014-Sep-26 09:33N 43°23' W 001°48'0 0.0
2014-Sep-26 08:29N 43°23' W 001°48'0 0.0
2014-Sep-25 17:20N 43°23' W 001°48'0 0.0
2014-Sep-25 16:33N 43°23' W 001°48'0 0.0
2014-Sep-25 15:33N 43°23' W 001°48'0 0.0
2014-Sep-25 14:33N 43°23' W 001°48'0 0.0
2014-Sep-25 13:34N 43°23' W 001°48'0 0.0
2014-Sep-25 12:34N 43°23' W 001°48'0 0.0
2014-Sep-25 11:33N 43°23' W 001°48'  
Track history (hours):
 
Tides and Currents Weather Stations Pressure Air Temp Water Temp Dewpoint Dewpoint Depression Visibility Wind Speed Wind Dir Waves Ship Positions

San Fermin Berria

Last reported at 2014-Sep-30 11:33 UTC. Time now 2014-Sep-30 11:57 UTC.
Position N 43°56' W 001°43'.

Length 30 m.

Type: Fishing. MMSI: 224114650.

Date/timePositionNaut miles runAvg speedWind from/ knotsBaromVisibWave heightAir tempDewpointWater temp
2014-Sep-30 11:33N 43°56' W 001°43'19 5.5
2014-Sep-30 08:04N 44°15' W 001°38'0 0.0
2014-Sep-30 07:30N 44°15' W 001°38'2 1.7
2014-Sep-30 06:33N 44°17' W 001°37'6 5.8
2014-Sep-30 05:29N 44°23' W 001°35'5 5.0
2014-Sep-30 04:33N 44°18' W 001°33'3 3.2
2014-Sep-30 03:33N 44°21' W 001°33'1 0.7
2014-Sep-30 02:32N 44°21' W 001°32'5 4.4
2014-Sep-30 01:27N 44°25' W 001°32'45 4.9
2014-Sep-29 16:10N 43°40' W 001°40'6 9.5
2014-Sep-29 15:33N 43°35' W 001°42'9 9.1
2014-Sep-29 14:33N 43°26' W 001°46'  
2014-Sep-26 15:33N 43°23' W 001°48'0 0.0
2014-Sep-26 14:33N 43°23' W 001°48'0 0.0
2014-Sep-26 11:33N 43°23' W 001°48'0 0.0
2014-Sep-26 10:33N 43°23' W 001°48'0 0.0
2014-Sep-26 09:33N 43°23' W 001°48'0 0.0
2014-Sep-26 08:29N 43°23' W 001°48'0 0.0
2014-Sep-25 17:20N 43°23' W 001°48'0 0.0
2014-Sep-25 16:33N 43°23' W 001°48'0 0.0
2014-Sep-25 15:33N 43°23' W 001°48'0 0.0
2014-Sep-25 14:33N 43°23' W 001°48'0 0.0
2014-Sep-25 13:34N 43°23' W 001°48'0 0.0
2014-Sep-25 12:34N 43°23' W 001°48'0 0.0
2014-Sep-25 11:33N 43°23' W 001°48'  

Dump ship's entire track history